Time;durP1;ratioP1;P1;durP2;ratioP2;P2;SDS_P1;SDS_P2;PMS_P1;PMS_P2;Temp;Humidity;BMP_temperature;BMP_pressure;BME280_temperature;BME280_humidity;BME280_pressure;Samples;Min_cycle;Max_cycle;Signal;HPM_P1;HPM_P2
2023/10/21 00:02:26;;;;;;;11.50;4.40;;;;;;;;;;4993341;28;94728;-64
2023/10/21 00:04:52;;;;;;;16.98;4.93;;;;;;;;;;4999084;28;93375;-64
2023/10/21 00:07:19;;;;;;;15.43;4.53;;;;;;;;;;4998914;28;93099;-64
2023/10/21 00:09:45;;;;;;;7.75;4.68;;;;;;;;;;5003895;28;93570;-64
2023/10/21 00:12:12;;;;;;;10.38;4.07;;;;;;;;;;4994974;28;93128;-64
2023/10/21 00:14:38;;;;;;;18.52;5.15;;;;;;;;;;4999573;28;94377;-65
2023/10/21 00:17:04;;;;;;;13.80;4.55;;;;;;;;;;4995792;28;92485;-64
2023/10/21 00:19:31;;;;;;;34.22;6.43;;;;;;;;;;4997469;28;94374;-64
2023/10/21 00:21:58;;;;;;;6.97;4.75;;;;;;;;;;4994027;28;93379;-64
2023/10/21 00:24:25;;;;;;;11.85;5.63;;;;;;;;;;4994528;28;92626;-64
2023/10/21 00:26:51;;;;;;;10.60;5.18;;;;;;;;;;4993253;28;94912;-64
2023/10/21 00:29:18;;;;;;;13.10;6.05;;;;;;;;;;5006747;28;93331;-65
2023/10/21 00:31:44;;;;;;;10.00;5.20;;;;;;;;;;4998455;28;92364;-64
2023/10/21 00:34:11;;;;;;;12.95;4.05;;;;;;;;;;4994912;28;93563;-64
2023/10/21 00:36:37;;;;;;;8.07;4.63;;;;;;;;;;4994389;28;93315;-64
2023/10/21 00:39:10;;;;;;;6.90;3.90;;;;;;;;;;4995803;28;92942;-64
2023/10/21 00:41:37;;;;;;;13.75;4.10;;;;;;;;;;4998724;28;93380;-65
2023/10/21 00:44:05;;;;;;;8.02;4.03;;;;;;;;;;4995500;28;91814;-64
2023/10/21 00:46:31;;;;;;;12.25;4.68;;;;;;;;;;5000222;28;92551;-64
2023/10/21 00:48:57;;;;;;;9.27;4.85;;;;;;;;;;4998896;28;94222;-65
2023/10/21 00:51:25;;;;;;;12.63;4.20;;;;;;;;;;4994004;28;95457;-64
2023/10/21 00:53:52;;;;;;;14.32;4.78;;;;;;;;;;4997390;28;95532;-64
2023/10/21 00:56:19;;;;;;;13.93;4.30;;;;;;;;;;4993905;28;92436;-64
2023/10/21 00:58:45;;;;;;;9.82;4.45;;;;;;;;;;4995107;28;93277;-64
2023/10/21 01:01:13;;;;;;;9.00;4.18;;;;;;;;;;4994475;28;93413;-64
2023/10/21 01:03:40;;;;;;;12.60;4.45;;;;;;;;;;4994823;28;92596;-65
2023/10/21 01:06:07;;;;;;;13.13;4.60;;;;;;;;;;4994738;28;93232;-63
2023/10/21 01:08:41;;;;;;;8.90;3.92;;;;;;;;;;4998317;28;92638;-64
2023/10/21 01:11:08;;;;;;;13.38;3.95;;;;;;;;;;4994205;28;92734;-64
2023/10/21 01:13:35;;;;;;;8.38;4.43;;;;;;;;;;4995184;28;94160;-64
2023/10/21 01:16:01;;;;;;;11.90;4.63;;;;;;;;;;5000450;28;95726;-64
2023/10/21 01:18:33;;;;;;;12.43;4.35;;;;;;;;;;4996561;28;95288;-64
2023/10/21 01:21:01;;;;;;;11.13;3.80;;;;;;;;;;4994224;28;96536;-64
2023/10/21 01:23:28;;;;;;;5.88;4.00;;;;;;;;;;4994254;28;92555;-64
2023/10/21 01:25:54;;;;;;;14.10;4.40;;;;;;;;;;4997959;28;93242;-65
2023/10/21 01:28:20;;;;;;;11.77;4.13;;;;;;;;;;4998994;28;94463;-64
2023/10/21 01:30:47;;;;;;;7.47;3.70;;;;;;;;;;4994363;28;92403;-65
2023/10/21 01:33:14;;;;;;;7.90;4.20;;;;;;;;;;4999655;28;91812;-64
2023/10/21 01:35:40;;;;;;;11.45;4.05;;;;;;;;;;4997143;28;94398;-65
2023/10/21 01:38:07;;;;;;;8.13;3.72;;;;;;;;;;5000994;28;92522;-64
2023/10/21 01:40:33;;;;;;;11.73;3.92;;;;;;;;;;4992708;28;96302;-64
2023/10/21 01:42:59;;;;;;;8.98;3.78;;;;;;;;;;4997437;28;92537;-64
2023/10/21 01:45:26;;;;;;;12.30;3.53;;;;;;;;;;4995009;28;92356;-64
2023/10/21 01:47:52;;;;;;;13.98;4.32;;;;;;;;;;4994985;28;93310;-64
2023/10/21 01:50:19;;;;;;;11.77;3.78;;;;;;;;;;4997761;28;92415;-62
2023/10/21 01:52:45;;;;;;;14.75;3.95;;;;;;;;;;4993160;28;93180;-62
2023/10/21 01:55:12;;;;;;;11.77;3.80;;;;;;;;;;4998421;28;94368;-62
2023/10/21 01:57:38;;;;;;;9.73;4.15;;;;;;;;;;4997546;28;91813;-62
2023/10/21 02:00:08;;;;;;;15.13;5.05;;;;;;;;;;4993956;28;93366;-61
2023/10/21 02:02:35;;;;;;;9.50;3.88;;;;;;;;;;4993695;28;92523;-61
2023/10/21 02:05:04;;;;;;;9.18;3.95;;;;;;;;;;4992596;28;95022;-62
2023/10/21 02:07:36;;;;;;;13.15;4.25;;;;;;;;;;4993336;28;94391;-62
2023/10/21 02:10:03;;;;;;;8.93;3.92;;;;;;;;;;4993910;28;92426;-61
2023/10/21 02:12:30;;;;;;;10.90;4.18;;;;;;;;;;4993554;28;92612;-61
2023/10/21 02:14:56;;;;;;;12.75;4.90;;;;;;;;;;4992624;28;92322;-62
2023/10/21 02:17:23;;;;;;;15.02;4.93;;;;;;;;;;4995699;28;92769;-62
2023/10/21 02:19:58;;;;;;;9.13;4.35;;;;;;;;;;4998189;28;93838;-62
2023/10/21 02:22:24;;;;;;;10.75;4.63;;;;;;;;;;4994294;28;93454;-61
2023/10/21 02:24:53;;;;;;;12.30;5.10;;;;;;;;;;4992957;28;92586;-62
2023/10/21 02:27:19;;;;;;;7.90;4.53;;;;;;;;;;4994829;28;93339;-62
2023/10/21 02:29:46;;;;;;;7.22;4.07;;;;;;;;;;4996591;28;94918;-61
2023/10/21 02:32:12;;;;;;;18.20;5.03;;;;;;;;;;4993101;28;95628;-62
2023/10/21 02:34:38;;;;;;;10.77;4.90;;;;;;;;;;4996700;28;93440;-62
2023/10/21 02:37:05;;;;;;;14.20;5.10;;;;;;;;;;4993692;28;92722;-61
2023/10/21 02:39:31;;;;;;;14.75;4.80;;;;;;;;;;4992876;27;92931;-62
2023/10/21 02:41:58;;;;;;;20.25;4.45;;;;;;;;;;4998573;28;95003;-62
2023/10/21 02:44:24;;;;;;;13.60;4.35;;;;;;;;;;4994333;28;94507;-62
2023/10/21 02:46:54;;;;;;;9.20;4.38;;;;;;;;;;4995291;28;92969;-62
2023/10/21 02:49:20;;;;;;;10.30;4.72;;;;;;;;;;4996777;28;92320;-62
2023/10/21 02:51:47;;;;;;;16.13;5.63;;;;;;;;;;4992804;28;94137;-61
2023/10/21 02:54:13;;;;;;;7.05;4.63;;;;;;;;;;4994469;28;95805;-61
2023/10/21 02:56:43;;;;;;;8.85;4.50;;;;;;;;;;4992986;28;92514;-62
2023/10/21 02:59:09;;;;;;;10.95;4.40;;;;;;;;;;4997739;28;94164;-62
2023/10/21 03:01:35;;;;;;;10.30;4.43;;;;;;;;;;4993021;28;93336;-62
2023/10/21 03:04:02;;;;;;;10.27;4.68;;;;;;;;;;4995607;28;92895;-62
2023/10/21 03:06:29;;;;;;;7.28;4.68;;;;;;;;;;4995805;28;93522;-62
2023/10/21 03:08:55;;;;;;;8.02;4.63;;;;;;;;;;4992935;28;92470;-61
2023/10/21 03:11:23;;;;;;;23.92;5.85;;;;;;;;;;4993285;28;93209;-62
2023/10/21 03:13:50;;;;;;;10.65;5.03;;;;;;;;;;4993072;28;94446;-61
2023/10/21 03:16:16;;;;;;;7.68;4.65;;;;;;;;;;4994508;28;93091;-62
2023/10/21 03:18:45;;;;;;;9.95;4.75;;;;;;;;;;4997363;28;94918;-62
2023/10/21 03:21:12;;;;;;;10.30;5.07;;;;;;;;;;4996364;28;92467;-61
2023/10/21 03:23:38;;;;;;;7.70;4.53;;;;;;;;;;4992091;28;92688;-61
2023/10/21 03:26:06;;;;;;;14.13;5.07;;;;;;;;;;4996096;28;93082;-61
2023/10/21 03:28:32;;;;;;;12.45;4.85;;;;;;;;;;4996728;28;92601;-61
2023/10/21 03:30:59;;;;;;;4.82;4.22;;;;;;;;;;4993586;28;93409;-62
2023/10/21 03:33:27;;;;;;;10.43;4.65;;;;;;;;;;4993771;28;94364;-62
2023/10/21 03:35:54;;;;;;;11.75;5.05;;;;;;;;;;4992519;28;91716;-62
2023/10/21 03:38:21;;;;;;;9.63;4.55;;;;;;;;;;4992628;28;92449;-62
2023/10/21 03:40:57;;;;;;;9.20;4.63;;;;;;;;;;4992136;28;94568;-62
2023/10/21 03:43:24;;;;;;;8.07;4.45;;;;;;;;;;4990317;28;95193;-62
2023/10/21 03:45:50;;;;;;;9.13;4.40;;;;;;;;;;4998562;28;95535;-61
2023/10/21 03:48:17;;;;;;;10.98;4.82;;;;;;;;;;4994671;28;92584;-62
2023/10/21 03:50:43;;;;;;;10.65;4.45;;;;;;;;;;4992181;28;93150;-62
2023/10/21 03:53:11;;;;;;;9.02;4.93;;;;;;;;;;4991724;28;93424;-62
2023/10/21 03:55:37;;;;;;;23.85;5.68;;;;;;;;;;4992752;28;92346;-62
2023/10/21 03:58:04;;;;;;;16.55;5.82;;;;;;;;;;4992643;28;94203;-61
2023/10/21 04:00:30;;;;;;;16.73;4.95;;;;;;;;;;4994951;28;92678;-62
2023/10/21 04:02:57;;;;;;;22.42;5.57;;;;;;;;;;4995681;28;92718;-61
2023/10/21 04:05:24;;;;;;;12.07;5.43;;;;;;;;;;4995912;28;94303;-61
2023/10/21 04:07:50;;;;;;;14.98;4.80;;;;;;;;;;4996237;28;95808;-62
2023/10/21 04:10:17;;;;;;;11.60;5.57;;;;;;;;;;4995963;28;96688;-62
2023/10/21 04:12:43;;;;;;;17.90;5.50;;;;;;;;;;4995222;28;94126;-62
2023/10/21 04:15:09;;;;;;;7.82;4.78;;;;;;;;;;4995026;28;92357;-62
2023/10/21 04:17:39;;;;;;;16.23;5.50;;;;;;;;;;5005848;28;93159;-61
2023/10/21 04:20:06;;;;;;;11.13;5.27;;;;;;;;;;4995129;28;93626;-62
2023/10/21 04:22:32;;;;;;;16.85;4.95;;;;;;;;;;4995610;28;92954;-61
2023/10/21 04:25:00;;;;;;;13.57;5.32;;;;;;;;;;4995927;28;93153;-61
2023/10/21 04:27:26;;;;;;;9.25;4.53;;;;;;;;;;4994911;28;93476;-62
2023/10/21 04:29:52;;;;;;;14.10;5.30;;;;;;;;;;4998494;28;93311;-61
2023/10/21 04:32:19;;;;;;;9.10;5.30;;;;;;;;;;4993269;28;95744;-61
2023/10/21 04:34:45;;;;;;;12.05;5.93;;;;;;;;;;4994870;28;93129;-61
2023/10/21 04:37:11;;;;;;;10.05;4.93;;;;;;;;;;4994818;28;93122;-62
2023/10/21 04:39:39;;;;;;;16.92;4.97;;;;;;;;;;4995389;28;93743;-62
2023/10/21 04:42:06;;;;;;;12.73;5.18;;;;;;;;;;5002978;28;92816;-62
2023/10/21 04:44:32;;;;;;;18.80;6.47;;;;;;;;;;4998094;28;93140;-61
2023/10/21 04:46:59;;;;;;;16.23;5.30;;;;;;;;;;4997219;28;93423;-62
2023/10/21 04:49:25;;;;;;;7.95;4.47;;;;;;;;;;4995359;28;91671;-62
2023/10/21 04:51:51;;;;;;;10.95;4.82;;;;;;;;;;4997172;28;92910;-62
2023/10/21 04:54:17;;;;;;;12.20;4.90;;;;;;;;;;4994466;28;92403;-62
2023/10/21 04:56:44;;;;;;;7.75;4.47;;;;;;;;;;4993425;28;95282;-62
2023/10/21 04:59:10;;;;;;;14.55;5.22;;;;;;;;;;4994928;28;94372;-62
2023/10/21 05:01:37;;;;;;;16.02;5.13;;;;;;;;;;4994745;28;92535;-61
2023/10/21 05:04:03;;;;;;;19.70;6.72;;;;;;;;;;4994446;28;93267;-62
2023/10/21 05:06:30;;;;;;;15.35;4.95;;;;;;;;;;4995114;28;94497;-62
2023/10/21 05:08:56;;;;;;;12.52;4.85;;;;;;;;;;4996229;28;92487;-61
2023/10/21 05:11:22;;;;;;;11.00;4.78;;;;;;;;;;4995828;28;93114;-62
2023/10/21 05:13:49;;;;;;;10.25;4.43;;;;;;;;;;4998034;28;93028;-61
2023/10/21 05:16:15;;;;;;;14.38;4.85;;;;;;;;;;5015417;28;93384;-61
2023/10/21 05:18:41;;;;;;;10.23;4.82;;;;;;;;;;5001216;28;92622;-62
2023/10/21 05:21:08;;;;;;;13.40;4.97;;;;;;;;;;4992836;28;94919;-61
2023/10/21 05:23:34;;;;;;;11.20;4.80;;;;;;;;;;4994617;28;95583;-64
2023/10/21 05:26:01;;;;;;;11.57;5.00;;;;;;;;;;4993695;28;93435;-65
2023/10/21 05:28:27;;;;;;;11.65;5.07;;;;;;;;;;4994329;28;92749;-65
2023/10/21 05:30:53;;;;;;;13.98;4.88;;;;;;;;;;4994259;28;94284;-64
2023/10/21 05:33:20;;;;;;;15.07;5.45;;;;;;;;;;4998260;28;93468;-64
2023/10/21 05:35:47;;;;;;;8.15;4.55;;;;;;;;;;4997517;28;92520;-64
2023/10/21 05:38:13;;;;;;;14.30;4.85;;;;;;;;;;4994469;28;93003;-64
2023/10/21 05:40:41;;;;;;;13.43;5.10;;;;;;;;;;5002828;28;92325;-64
2023/10/21 05:43:07;;;;;;;15.07;5.13;;;;;;;;;;4994086;28;93138;-65
2023/10/21 05:45:33;;;;;;;11.35;4.85;;;;;;;;;;4991530;28;94862;-64
2023/10/21 05:48:00;;;;;;;16.05;5.22;;;;;;;;;;4997277;28;92375;-64
2023/10/21 05:50:26;;;;;;;10.95;4.75;;;;;;;;;;4994015;28;93278;-64
2023/10/21 05:52:53;;;;;;;14.82;4.75;;;;;;;;;;4993709;28;93400;-64
2023/10/21 05:55:22;;;;;;;13.95;5.30;;;;;;;;;;5000638;28;92534;-64
2023/10/21 05:57:49;;;;;;;15.63;5.25;;;;;;;;;;4993177;28;93206;-65
2023/10/21 06:00:16;;;;;;;9.93;4.53;;;;;;;;;;4994277;28;92435;-64
2023/10/21 06:02:42;;;;;;;13.32;4.93;;;;;;;;;;4994440;28;93251;-64
2023/10/21 06:05:09;;;;;;;13.00;5.05;;;;;;;;;;4993103;28;93194;-64
2023/10/21 06:07:35;;;;;;;12.80;5.05;;;;;;;;;;5011883;28;93990;-64
2023/10/21 06:10:02;;;;;;;16.20;5.03;;;;;;;;;;4994535;27;95250;-64
2023/10/21 06:12:28;;;;;;;14.48;4.78;;;;;;;;;;4993628;28;93467;-64
2023/10/21 06:14:55;;;;;;;17.25;5.07;;;;;;;;;;4994968;28;93095;-64
2023/10/21 06:17:21;;;;;;;13.85;4.70;;;;;;;;;;5003860;28;94295;-64
2023/10/21 06:19:48;;;;;;;14.48;5.03;;;;;;;;;;4996689;28;92341;-64
2023/10/21 06:22:15;;;;;;;13.43;4.88;;;;;;;;;;5000954;28;94263;-64
2023/10/21 06:24:41;;;;;;;16.33;5.50;;;;;;;;;;4993375;28;94398;-64
2023/10/21 06:27:08;;;;;;;18.70;5.65;;;;;;;;;;4998101;28;91843;-64
2023/10/21 06:29:34;;;;;;;11.57;4.65;;;;;;;;;;4997238;28;93148;-64
2023/10/21 06:32:04;;;;;;;13.43;5.05;;;;;;;;;;4992383;28;93461;-62
2023/10/21 06:34:30;;;;;;;16.00;4.90;;;;;;;;;;4991208;28;94873;-62
2023/10/21 06:36:56;;;;;;;13.63;4.78;;;;;;;;;;4994730;28;95497;-62
2023/10/21 06:39:23;;;;;;;18.60;5.50;;;;;;;;;;5003818;28;93385;-62
2023/10/21 06:41:49;;;;;;;9.40;4.20;;;;;;;;;;5000628;28;92770;-61
2023/10/21 06:44:16;;;;;;;20.73;5.35;;;;;;;;;;4995789;28;93435;-61
2023/10/21 06:46:43;;;;;;;21.15;4.82;;;;;;;;;;4996101;28;92412;-61
2023/10/21 06:49:09;;;;;;;13.38;4.10;;;;;;;;;;4993134;28;93134;-62
2023/10/21 06:51:36;;;;;;;11.00;4.22;;;;;;;;;;4993263;28;92677;-62
2023/10/21 06:54:03;;;;;;;13.27;4.15;;;;;;;;;;4993126;28;92434;-61
2023/10/21 06:56:29;;;;;;;9.48;4.68;;;;;;;;;;4994596;28;93233;-62
2023/10/21 06:58:57;;;;;;;9.10;4.25;;;;;;;;;;4997046;28;94727;-62
2023/10/21 07:01:23;;;;;;;9.25;4.28;;;;;;;;;;5000200;28;92588;-61
2023/10/21 07:03:49;;;;;;;11.85;3.80;;;;;;;;;;4996731;28;93341;-62
2023/10/21 07:06:20;;;;;;;17.42;4.00;;;;;;;;;;4996702;28;93224;-61
2023/10/21 07:08:46;;;;;;;7.47;3.70;;;;;;;;;;4992323;28;93216;-61
2023/10/21 07:11:13;;;;;;;15.55;3.97;;;;;;;;;;4996284;28;93244;-61
2023/10/21 07:13:42;;;;;;;22.20;4.57;;;;;;;;;;4992818;28;92536;-61
2023/10/21 07:16:12;;;;;;;15.77;4.05;;;;;;;;;;4995250;28;92974;-61
2023/10/21 07:18:39;;;;;;;18.63;4.38;;;;;;;;;;4997042;28;92327;-61
2023/10/21 07:21:08;;;;;;;16.08;4.10;;;;;;;;;;4996395;28;92657;-62
2023/10/21 07:23:38;;;;;;;14.02;4.13;;;;;;;;;;4994466;28;94883;-61
2023/10/21 07:26:04;;;;;;;13.25;3.85;;;;;;;;;;4997087;28;92773;-62
2023/10/21 07:28:31;;;;;;;17.75;4.13;;;;;;;;;;4992682;28;93134;-61
2023/10/21 07:30:57;;;;;;;15.88;4.20;;;;;;;;;;4991950;28;92352;-62
2023/10/21 07:33:24;;;;;;;21.85;3.60;;;;;;;;;;4997250;28;92552;-62
2023/10/21 07:35:51;;;;;;;16.38;4.10;;;;;;;;;;4996016;28;92556;-62
2023/10/21 07:38:18;;;;;;;13.40;3.70;;;;;;;;;;4995937;28;94422;-62
2023/10/21 07:40:45;;;;;;;12.38;3.60;;;;;;;;;;4996555;28;91706;-61
2023/10/21 07:43:11;;;;;;;12.15;3.67;;;;;;;;;;5004122;28;93489;-64
2023/10/21 07:45:38;;;;;;;15.48;3.28;;;;;;;;;;5001638;28;93785;-64
2023/10/21 07:48:07;;;;;;;9.57;3.20;;;;;;;;;;4997449;28;94928;-64
2023/10/21 07:50:33;;;;;;;6.80;3.20;;;;;;;;;;4994991;28;93590;-64
2023/10/21 07:52:59;;;;;;;14.68;3.33;;;;;;;;;;4999960;28;92430;-64
2023/10/21 07:55:26;;;;;;;8.95;2.90;;;;;;;;;;4995639;28;94217;-64
2023/10/21 07:57:53;;;;;;;13.50;3.53;;;;;;;;;;4995285;28;94127;-64
2023/10/21 08:00:19;;;;;;;11.32;3.25;;;;;;;;;;5002951;28;93457;-64
2023/10/21 08:02:46;;;;;;;11.95;3.38;;;;;;;;;;5000008;28;93123;-64
2023/10/21 08:05:13;;;;;;;13.10;3.20;;;;;;;;;;4999099;28;93895;-64
2023/10/21 08:07:39;;;;;;;7.55;2.95;;;;;;;;;;4994644;28;92660;-64
2023/10/21 08:10:07;;;;;;;10.88;3.30;;;;;;;;;;4997500;28;92380;-64
2023/10/21 08:12:34;;;;;;;7.65;2.58;;;;;;;;;;4999043;28;95042;-64
2023/10/21 08:15:07;;;;;;;7.22;1.98;;;;;;;;;;5012485;28;95822;-64
2023/10/21 08:17:34;;;;;;;5.13;2.00;;;;;;;;;;5004792;28;93948;-64
2023/10/21 08:20:01;;;;;;;5.88;1.95;;;;;;;;;;4998203;28;92503;-64
2023/10/21 08:22:27;;;;;;;5.57;1.70;;;;;;;;;;4995090;28;93109;-64
2023/10/21 08:24:54;;;;;;;2.45;1.40;;;;;;;;;;4994430;28;93474;-64
2023/10/21 08:27:21;;;;;;;2.55;1.23;;;;;;;;;;5001960;28;92373;-64
2023/10/21 08:29:48;;;;;;;2.10;1.20;;;;;;;;;;4995558;28;93164;-64
2023/10/21 08:32:15;;;;;;;6.28;1.55;;;;;;;;;;4998956;28;92696;-64
2023/10/21 08:34:41;;;;;;;1.58;1.00;;;;;;;;;;4999847;28;94143;-64
2023/10/21 08:37:08;;;;;;;2.80;1.10;;;;;;;;;;4992785;28;95777;-64
2023/10/21 08:39:34;;;;;;;4.15;1.30;;;;;;;;;;4994497;28;92420;-64
2023/10/21 08:42:02;;;;;;;2.25;1.10;;;;;;;;;;4995469;28;94273;-64
2023/10/21 08:44:35;;;;;;;3.28;1.10;;;;;;;;;;4993799;28;93505;-64
2023/10/21 08:47:03;;;;;;;0.93;0.80;;;;;;;;;;5001876;28;92741;-64
2023/10/21 08:49:31;;;;;;;2.35;1.20;;;;;;;;;;4997413;28;94234;-64
2023/10/21 08:51:58;;;;;;;3.75;1.02;;;;;;;;;;4995445;28;92658;-64
2023/10/21 08:54:25;;;;;;;3.80;1.10;;;;;;;;;;4994681;28;93136;-64
2023/10/21 08:56:52;;;;;;;4.50;0.90;;;;;;;;;;5003466;28;94459;-64
2023/10/21 08:59:18;;;;;;;1.02;0.68;;;;;;;;;;4998906;28;92516;-65
2023/10/21 09:01:47;;;;;;;1.10;0.70;;;;;;;;;;4997487;28;94702;-64
2023/10/21 09:04:18;;;;;;;5.03;0.70;;;;;;;;;;4994358;28;94392;-64
2023/10/21 09:06:55;;;;;;;2.30;0.82;;;;;;;;;;4994384;28;92536;-64
2023/10/21 09:09:23;;;;;;;2.90;1.25;;;;;;;;;;4994895;28;94310;-64
2023/10/21 09:12:01;;;;;;;0.52;0.52;;;;;;;;;;4997945;28;94204;-64
2023/10/21 09:14:29;;;;;;;4.80;0.70;;;;;;;;;;4995232;28;92727;-63
2023/10/21 09:16:56;;;;;;;2.45;0.73;;;;;;;;;;5001767;28;94992;-64
2023/10/21 09:19:29;;;;;;;3.28;0.73;;;;;;;;;;4994472;28;91693;-64
2023/10/21 09:21:55;;;;;;;5.05;0.75;;;;;;;;;;4994211;28;92545;-63
2023/10/21 09:24:22;;;;;;;2.08;0.73;;;;;;;;;;4994231;28;94442;-63
2023/10/21 09:26:49;;;;;;;3.13;1.02;;;;;;;;;;4992815;28;94756;-64
2023/10/21 09:29:20;;;;;;;4.57;0.98;;;;;;;;;;4994449;28;96614;-64
2023/10/21 09:31:48;;;;;;;2.72;0.73;;;;;;;;;;4993618;27;93383;-64
2023/10/21 09:34:29;;;;;;;2.58;0.80;;;;;;;;;;5001899;28;92500;-64
2023/10/21 09:37:03;;;;;;;7.82;0.85;;;;;;;;;;4994044;28;93372;-64
2023/10/21 09:39:32;;;;;;;1.13;0.80;;;;;;;;;;4998832;28;93066;-64
2023/10/21 09:41:59;;;;;;;1.88;0.80;;;;;;;;;;4994712;28;94067;-64
2023/10/21 09:44:26;;;;;;;6.47;0.85;;;;;;;;;;4998251;28;92318;-64
2023/10/21 09:46:56;;;;;;;4.60;0.85;;;;;;;;;;4997750;28;92698;-64
2023/10/21 09:49:23;;;;;;;7.43;0.90;;;;;;;;;;4993712;28;93014;-64
2023/10/21 09:51:49;;;;;;;0.88;0.50;;;;;;;;;;4992445;28;96097;-64
2023/10/21 09:54:19;;;;;;;3.28;0.82;;;;;;;;;;4993876;28;92521;-64
2023/10/21 09:56:46;;;;;;;3.00;0.73;;;;;;;;;;4996562;28;93222;-64
2023/10/21 09:59:13;;;;;;;3.45;0.90;;;;;;;;;;4993463;28;92973;-64
2023/10/21 10:01:40;;;;;;;2.80;0.88;;;;;;;;;;4998001;28;92971;-64
2023/10/21 10:04:09;;;;;;;2.20;0.52;;;;;;;;;;4997790;28;94403;-61
2023/10/21 10:06:39;;;;;;;2.37;0.63;;;;;;;;;;4994092;28;92710;-62
2023/10/21 10:09:11;;;;;;;1.27;0.57;;;;;;;;;;4994244;28;94026;-61
2023/10/21 10:11:38;;;;;;;4.47;0.70;;;;;;;;;;4993157;28;93533;-62
2023/10/21 10:14:05;;;;;;;2.63;0.70;;;;;;;;;;4993886;28;92355;-62
2023/10/21 10:16:32;;;;;;;4.05;0.77;;;;;;;;;;4999783;28;94879;-61
2023/10/21 10:18:59;;;;;;;5.00;0.60;;;;;;;;;;4997395;28;92435;-61
2023/10/21 10:21:27;;;;;;;1.77;0.70;;;;;;;;;;4993747;28;93107;-62
2023/10/21 10:24:00;;;;;;;1.10;0.63;;;;;;;;;;4991836;28;94180;-61
2023/10/21 10:26:37;;;;;;;2.85;0.73;;;;;;;;;;4993631;28;92455;-61
2023/10/21 10:29:19;;;;;;;5.30;0.70;;;;;;;;;;4995366;28;93141;-62
2023/10/21 10:31:47;;;;;;;1.45;0.55;;;;;;;;;;4993530;28;93425;-62
2023/10/21 10:34:16;;;;;;;3.20;0.68;;;;;;;;;;5000500;28;91708;-62
2023/10/21 10:36:42;;;;;;;10.90;0.90;;;;;;;;;;4994708;28;92555;-62
2023/10/21 10:39:28;;;;;;;1.92;0.68;;;;;;;;;;4995945;28;93458;-62
2023/10/21 10:41:55;;;;;;;4.32;0.80;;;;;;;;;;4991568;28;95104;-61
2023/10/21 10:44:21;;;;;;;3.03;1.35;;;;;;;;;;4992919;28;93242;-61
2023/10/21 10:46:49;;;;;;;5.05;0.75;;;;;;;;;;4997257;28;92536;-62
2023/10/21 10:49:16;;;;;;;3.53;0.77;;;;;;;;;;4992660;28;93154;-62
2023/10/21 10:51:43;;;;;;;2.05;0.88;;;;;;;;;;4992937;28;93421;-61
2023/10/21 10:54:15;;;;;;;5.07;0.90;;;;;;;;;;4992904;28;92518;-61
2023/10/21 10:56:48;;;;;;;4.13;0.85;;;;;;;;;;4993117;28;92751;-62
2023/10/21 10:59:14;;;;;;;6.50;0.80;;;;;;;;;;4997211;28;92678;-62
2023/10/21 11:01:41;;;;;;;5.68;0.70;;;;;;;;;;4997281;28;92347;-62
2023/10/21 11:04:08;;;;;;;4.60;0.85;;;;;;;;;;4998380;28;93383;-62
2023/10/21 11:06:36;;;;;;;2.85;0.80;;;;;;;;;;4991405;28;94926;-62
2023/10/21 11:09:07;;;;;;;3.22;1.00;;;;;;;;;;4992055;28;95532;-62
2023/10/21 11:11:44;;;;;;;3.13;0.82;;;;;;;;;;4996581;28;93407;-62
2023/10/21 11:14:16;;;;;;;4.30;0.82;;;;;;;;;;4990927;28;92521;-62
2023/10/21 11:16:45;;;;;;;3.75;1.00;;;;;;;;;;4999056;28;93261;-61
2023/10/21 11:19:11;;;;;;;4.10;0.82;;;;;;;;;;4998382;28;93335;-63
2023/10/21 11:21:41;;;;;;;6.15;0.93;;;;;;;;;;4997291;28;92696;-63
2023/10/21 11:24:08;;;;;;;8.52;0.82;;;;;;;;;;4995978;28;93115;-62
2023/10/21 11:26:35;;;;;;;6.20;1.10;;;;;;;;;;4992446;28;92688;-62
2023/10/21 11:29:07;;;;;;;6.35;0.95;;;;;;;;;;5000847;28;93196;-63
2023/10/21 11:31:34;;;;;;;5.18;1.05;;;;;;;;;;4993524;28;95791;-63
2023/10/21 11:34:09;;;;;;;6.25;1.08;;;;;;;;;;5000983;28;92722;-61
2023/10/21 11:36:37;;;;;;;3.00;1.05;;;;;;;;;;4995097;28;94075;-62
2023/10/21 11:39:05;;;;;;;3.20;0.90;;;;;;;;;;4996752;28;93505;-62
2023/10/21 11:41:31;;;;;;;5.28;1.80;;;;;;;;;;4992451;28;92449;-62
2023/10/21 11:43:57;;;;;;;8.75;1.35;;;;;;;;;;4996196;28;93121;-62
2023/10/21 11:46:25;;;;;;;7.18;1.50;;;;;;;;;;5003231;28;93459;-62
2023/10/21 11:48:51;;;;;;;4.35;0.85;;;;;;;;;;4992984;27;93074;-62
2023/10/21 11:51:17;;;;;;;2.85;0.75;;;;;;;;;;4991779;28;94403;-62
2023/10/21 11:53:46;;;;;;;7.55;1.48;;;;;;;;;;4992614;28;92854;-62
2023/10/21 12:02:44;;;;;;;3.13;0.90;;;;;;;;;;4992271;28;92431;-62
2023/10/21 12:05:18;;;;;;;6.13;1.47;;;;;;;;;;4992158;28;96049;-62
2023/10/21 12:07:34;;;;;;;4.40;1.15;;;;;;;;;;4991398;28;93539;-61
2023/10/21 12:26:47;;;;;;;6.57;1.50;;;;;;;;;;4995419;27;95991;-63
2023/10/21 12:37:29;;;;;;;3.63;1.08;;;;;;;;;;4995040;28;92630;-62
2023/10/21 12:42:48;;;;;;;8.43;1.50;;;;;;;;;;4999501;28;92720;-62
2023/10/21 12:45:20;;;;;;;6.90;1.52;;;;;;;;;;4994360;28;92549;-62
2023/10/21 12:47:48;;;;;;;7.32;1.20;;;;;;;;;;4999741;28;93195;-62
2023/10/21 12:50:16;;;;;;;8.95;1.80;;;;;;;;;;5009592;28;96098;-62
2023/10/21 12:52:47;;;;;;;5.15;1.23;;;;;;;;;;4995230;28;92802;-62
2023/10/21 12:55:14;;;;;;;5.50;1.40;;;;;;;;;;4997035;28;93159;-63
2023/10/21 12:57:43;;;;;;;7.22;1.38;;;;;;;;;;4995621;28;92349;-63
2023/10/21 13:00:11;;;;;;;5.55;1.40;;;;;;;;;;4993999;28;93110;-63
2023/10/21 13:02:40;;;;;;;4.15;1.55;;;;;;;;;;4994289;28;93381;-63
2023/10/21 13:05:09;;;;;;;7.35;1.88;;;;;;;;;;4999067;28;92733;-63
2023/10/21 13:07:38;;;;;;;5.82;1.38;;;;;;;;;;4994251;28;93117;-62
2023/10/21 13:10:09;;;;;;;4.17;1.70;;;;;;;;;;4993760;28;93441;-63
2023/10/21 13:12:39;;;;;;;3.92;1.23;;;;;;;;;;4993919;28;92792;-63
2023/10/21 13:15:11;;;;;;;5.65;2.00;;;;;;;;;;4991975;28;95919;-63
2023/10/21 13:17:38;;;;;;;10.05;2.00;;;;;;;;;;4999449;28;93467;-63
2023/10/21 13:20:05;;;;;;;7.32;1.85;;;;;;;;;;4994897;28;94161;-63
2023/10/21 13:22:34;;;;;;;4.97;1.60;;;;;;;;;;5002945;28;94550;-63
2023/10/21 13:25:07;;;;;;;5.30;1.60;;;;;;;;;;4994467;28;92521;-63
2023/10/21 13:27:44;;;;;;;7.88;1.60;;;;;;;;;;4998934;28;93150;-63
2023/10/21 13:30:10;;;;;;;7.72;2.15;;;;;;;;;;4997644;28;93834;-63
2023/10/21 13:32:37;;;;;;;6.43;1.70;;;;;;;;;;4998945;28;91818;-63
2023/10/21 13:35:09;;;;;;;8.98;1.40;;;;;;;;;;4998533;28;92596;-63
2023/10/21 13:37:37;;;;;;;2.90;1.15;;;;;;;;;;4997927;28;93436;-63
2023/10/21 13:40:12;;;;;;;7.72;1.98;;;;;;;;;;4995826;28;95048;-63
2023/10/21 13:42:39;;;;;;;7.60;1.58;;;;;;;;;;4993741;28;93311;-63
2023/10/21 13:45:13;;;;;;;11.45;1.77;;;;;;;;;;4993610;28;92446;-63
2023/10/21 13:47:40;;;;;;;12.50;2.50;;;;;;;;;;4994391;28;93214;-63
2023/10/21 13:50:13;;;;;;;6.93;1.80;;;;;;;;;;4993571;28;94766;-63
2023/10/21 13:52:40;;;;;;;6.40;1.67;;;;;;;;;;5002074;28;92955;-63
2023/10/21 13:55:08;;;;;;;9.88;2.30;;;;;;;;;;4997218;28;93115;-64
2023/10/21 13:57:35;;;;;;;21.05;2.17;;;;;;;;;;4994155;28;92662;-63
2023/10/21 14:00:06;;;;;;;9.38;2.53;;;;;;;;;;4993820;28;92483;-63
2023/10/21 14:02:32;;;;;;;12.65;1.88;;;;;;;;;;5005049;28;94199;-62
2023/10/21 14:05:05;;;;;;;11.63;2.20;;;;;;;;;;4992788;28;95239;-63
2023/10/21 14:07:32;;;;;;;10.95;1.92;;;;;;;;;;4993877;28;96518;-63
2023/10/21 14:09:58;;;;;;;8.90;2.13;;;;;;;;;;5001666;28;93611;-63
2023/10/21 14:12:24;;;;;;;8.10;1.98;;;;;;;;;;4994462;28;92996;-63
2023/10/21 14:14:51;;;;;;;7.22;1.80;;;;;;;;;;4992881;28;93179;-63
2023/10/21 14:17:17;;;;;;;15.70;2.10;;;;;;;;;;4997721;28;93327;-63
2023/10/21 14:19:43;;;;;;;11.63;2.08;;;;;;;;;;4995724;28;92478;-63
2023/10/21 14:22:10;;;;;;;7.60;1.92;;;;;;;;;;4997211;28;94190;-63
2023/10/21 14:24:36;;;;;;;6.53;1.65;;;;;;;;;;4993162;28;92462;-63
2023/10/21 14:27:05;;;;;;;16.05;2.00;;;;;;;;;;5001190;28;93043;-63
2023/10/21 14:29:33;;;;;;;9.30;2.10;;;;;;;;;;4991509;28;96800;-63
2023/10/21 14:31:59;;;;;;;12.40;2.47;;;;;;;;;;4993655;28;92470;-63
2023/10/21 14:34:26;;;;;;;9.88;2.00;;;;;;;;;;4993018;28;93219;-64
2023/10/21 14:36:52;;;;;;;9.38;1.77;;;;;;;;;;4996698;28;94231;-63
2023/10/21 14:39:18;;;;;;;10.93;2.38;;;;;;;;;;4992713;28;92364;-64
2023/10/21 14:41:45;;;;;;;13.10;2.75;;;;;;;;;;4993616;28;93163;-64
2023/10/21 14:44:11;;;;;;;9.88;1.85;;;;;;;;;;4995207;28;94415;-63
2023/10/21 14:46:38;;;;;;;16.02;2.28;;;;;;;;;;4998505;28;94280;-63
2023/10/21 14:49:07;;;;;;;13.63;2.17;;;;;;;;;;4993567;28;94444;-63
2023/10/21 14:51:34;;;;;;;9.07;1.77;;;;;;;;;;4992815;28;92314;-64
2023/10/21 14:54:00;;;;;;;7.30;2.20;;;;;;;;;;4992020;28;95180;-64
2023/10/21 14:56:27;;;;;;;14.57;3.00;;;;;;;;;;4992676;28;93522;-62
2023/10/21 14:58:53;;;;;;;11.63;2.38;;;;;;;;;;4992688;28;92477;-63
2023/10/21 15:01:19;;;;;;;11.07;2.40;;;;;;;;;;4992304;28;92616;-64
2023/10/21 15:03:48;;;;;;;6.60;1.48;;;;;;;;;;4992604;28;93410;-63
2023/10/21 15:06:14;;;;;;;9.38;1.45;;;;;;;;;;4995781;28;92963;-64
2023/10/21 15:08:42;;;;;;;13.40;2.25;;;;;;;;;;4993495;28;93199;-63
2023/10/21 15:11:14;;;;;;;8.25;1.70;;;;;;;;;;4993151;28;91720;-63
2023/10/21 15:13:41;;;;;;;10.85;2.10;;;;;;;;;;4992739;28;92476;-64